sensor_id;sensor_type;location;lat;lon;timestamp;pressure;altitude;pressure_sealevel;temperature;humidity
73700;BME280;62005;50.082;8.988;2023-04-30T00:00:08;100931.09;;;12.63;73.30
73700;BME280;62005;50.082;8.988;2023-04-30T00:02:40;100902.84;;;12.46;73.69
73700;BME280;62005;50.082;8.988;2023-04-30T00:05:06;100884.00;;;12.33;73.78
73700;BME280;62005;50.082;8.988;2023-04-30T00:07:43;100922.38;;;12.55;73.92
73700;BME280;62005;50.082;8.988;2023-04-30T00:10:47;100953.13;;;12.73;74.34
73700;BME280;62005;50.082;8.988;2023-04-30T00:13:15;100956.88;;;12.72;74.67
73700;BME280;62005;50.082;8.988;2023-04-30T00:15:43;100924.53;;;12.46;74.72
73700;BME280;62005;50.082;8.988;2023-04-30T00:18:27;100914.97;;;12.44;74.26
73700;BME280;62005;50.082;8.988;2023-04-30T00:21:07;100922.13;;;12.38;74.83
73700;BME280;62005;50.082;8.988;2023-04-30T00:23:38;100926.22;;;12.47;74.92
73700;BME280;62005;50.082;8.988;2023-04-30T00:26:04;100920.63;;;12.42;74.91
73700;BME280;62005;50.082;8.988;2023-04-30T00:28:32;100939.09;;;12.52;75.13
73700;BME280;62005;50.082;8.988;2023-04-30T00:31:03;100966.97;;;12.65;75.20
73700;BME280;62005;50.082;8.988;2023-04-30T00:33:38;100900.53;;;12.25;75.04
73700;BME280;62005;50.082;8.988;2023-04-30T00:36:10;100896.63;;;12.21;75.17
73700;BME280;62005;50.082;8.988;2023-04-30T00:38:35;100933.34;;;12.42;75.49
73700;BME280;62005;50.082;8.988;2023-04-30T00:41:04;100936.44;;;12.45;75.59
73700;BME280;62005;50.082;8.988;2023-04-30T00:46:31;100907.66;;;12.20;75.35
73700;BME280;62005;50.082;8.988;2023-04-30T00:49:01;100910.16;;;12.21;75.97
73700;BME280;62005;50.082;8.988;2023-04-30T00:51:39;100916.34;;;12.28;75.61
73700;BME280;62005;50.082;8.988;2023-04-30T00:54:29;100923.06;;;12.26;75.29
73700;BME280;62005;50.082;8.988;2023-04-30T00:57:08;100905.22;;;12.12;75.53
73700;BME280;62005;50.082;8.988;2023-04-30T00:59:38;100965.84;;;12.48;76.05
73700;BME280;62005;50.082;8.988;2023-04-30T01:02:26;100899.63;;;12.07;75.31
73700;BME280;62005;50.082;8.988;2023-04-30T01:04:56;100966.28;;;12.45;76.24
73700;BME280;62005;50.082;8.988;2023-04-30T01:08:07;100905.72;;;12.02;76.04
73700;BME280;62005;50.082;8.988;2023-04-30T01:13:47;100952.66;;;12.27;76.34
73700;BME280;62005;50.082;8.988;2023-04-30T01:16:44;100946.44;;;12.20;76.16
73700;BME280;62005;50.082;8.988;2023-04-30T01:19:45;100894.78;;;11.84;75.98
73700;BME280;62005;50.082;8.988;2023-04-30T01:28:16;100983.34;;;12.21;76.86
73700;BME280;62005;50.082;8.988;2023-04-30T01:30:57;100968.66;;;12.04;76.90
73700;BME280;62005;50.082;8.988;2023-04-30T01:33:25;100950.78;;;11.90;76.41
73700;BME280;62005;50.082;8.988;2023-04-30T01:41:59;100950.19;;;11.88;77.16
73700;BME280;62005;50.082;8.988;2023-04-30T01:50:50;100950.44;;;11.80;77.16
73700;BME280;62005;50.082;8.988;2023-04-30T01:53:41;100950.88;;;11.77;77.40
73700;BME280;62005;50.082;8.988;2023-04-30T01:58:47;100960.47;;;11.73;77.02
73700;BME280;62005;50.082;8.988;2023-04-30T02:01:35;100955.50;;;11.70;77.45
73700;BME280;62005;50.082;8.988;2023-04-30T02:04:03;100959.25;;;11.69;77.29
73700;BME280;62005;50.082;8.988;2023-04-30T02:06:28;100952.63;;;11.65;76.97
73700;BME280;62005;50.082;8.988;2023-04-30T02:09:00;100932.63;;;11.53;77.94
73700;BME280;62005;50.082;8.988;2023-04-30T02:11:38;100980.06;;;11.75;77.30
73700;BME280;62005;50.082;8.988;2023-04-30T02:14:04;100949.69;;;11.60;77.43
73700;BME280;62005;50.082;8.988;2023-04-30T02:16:38;100909.78;;;11.36;77.76
73700;BME280;62005;50.082;8.988;2023-04-30T02:19:04;100966.75;;;11.67;77.67
73700;BME280;62005;50.082;8.988;2023-04-30T02:21:35;100934.34;;;11.41;78.47
73700;BME280;62005;50.082;8.988;2023-04-30T02:24:08;100916.06;;;11.30;77.83
73700;BME280;62005;50.082;8.988;2023-04-30T02:26:34;100963.03;;;11.55;77.73
73700;BME280;62005;50.082;8.988;2023-04-30T02:28:59;100978.22;;;11.56;77.96
73700;BME280;62005;50.082;8.988;2023-04-30T02:31:27;101003.38;;;11.76;77.96
73700;BME280;62005;50.082;8.988;2023-04-30T02:37:16;100968.44;;;11.55;78.78
73700;BME280;62005;50.082;8.988;2023-04-30T02:39:41;100973.06;;;11.48;78.11
73700;BME280;62005;50.082;8.988;2023-04-30T02:42:07;101010.69;;;11.69;77.73
73700;BME280;62005;50.082;8.988;2023-04-30T02:44:38;100981.78;;;11.50;77.74
73700;BME280;62005;50.082;8.988;2023-04-30T02:47:17;101010.06;;;11.67;78.12
73700;BME280;62005;50.082;8.988;2023-04-30T02:49:53;100943.97;;;11.24;78.32
73700;BME280;62005;50.082;8.988;2023-04-30T02:55:16;100998.03;;;11.56;78.46
73700;BME280;62005;50.082;8.988;2023-04-30T02:57:42;101001.94;;;11.60;78.34
73700;BME280;62005;50.082;8.988;2023-04-30T03:00:30;100957.28;;;11.32;78.57
73700;BME280;62005;50.082;8.988;2023-04-30T03:03:22;100920.28;;;11.13;78.54
73700;BME280;62005;50.082;8.988;2023-04-30T03:06:11;100947.72;;;11.29;78.62
73700;BME280;62005;50.082;8.988;2023-04-30T03:08:53;100934.63;;;11.20;78.75
73700;BME280;62005;50.082;8.988;2023-04-30T03:11:31;100946.06;;;11.28;78.48
73700;BME280;62005;50.082;8.988;2023-04-30T03:17:08;100955.41;;;11.26;78.43
73700;BME280;62005;50.082;8.988;2023-04-30T03:22:50;100999.69;;;11.51;78.65
73700;BME280;62005;50.082;8.988;2023-04-30T03:25:42;100980.59;;;11.33;78.65
73700;BME280;62005;50.082;8.988;2023-04-30T03:31:02;100935.50;;;11.01;78.63
73700;BME280;62005;50.082;8.988;2023-04-30T03:33:33;100938.19;;;11.01;79.27
73700;BME280;62005;50.082;8.988;2023-04-30T03:35:59;100926.59;;;10.94;79.29
73700;BME280;62005;50.082;8.988;2023-04-30T03:39:02;100985.81;;;11.28;79.08
73700;BME280;62005;50.082;8.988;2023-04-30T03:41:39;100977.91;;;11.20;79.19
73700;BME280;62005;50.082;8.988;2023-04-30T03:44:14;100938.19;;;11.01;78.85
73700;BME280;62005;50.082;8.988;2023-04-30T03:46:53;100971.44;;;11.21;79.07
73700;BME280;62005;50.082;8.988;2023-04-30T03:49:28;101003.88;;;11.40;79.08
73700;BME280;62005;50.082;8.988;2023-04-30T03:54:45;100933.66;;;10.95;78.54
73700;BME280;62005;50.082;8.988;2023-04-30T03:57:18;100924.47;;;10.96;78.75
73700;BME280;62005;50.082;8.988;2023-04-30T03:59:44;100981.84;;;11.24;78.42
73700;BME280;62005;50.082;8.988;2023-04-30T04:02:09;100942.81;;;11.00;78.48
73700;BME280;62005;50.082;8.988;2023-04-30T04:04:35;100969.81;;;11.13;78.56
73700;BME280;62005;50.082;8.988;2023-04-30T04:07:06;100969.81;;;11.20;78.54
73700;BME280;62005;50.082;8.988;2023-04-30T04:09:33;100935.72;;;10.93;78.73
73700;BME280;62005;50.082;8.988;2023-04-30T04:11:59;100942.81;;;10.94;78.37
73700;BME280;62005;50.082;8.988;2023-04-30T04:14:28;101011.63;;;11.37;78.35
73700;BME280;62005;50.082;8.988;2023-04-30T04:17:14;100968.16;;;11.19;78.92
73700;BME280;62005;50.082;8.988;2023-04-30T04:19:42;101008.91;;;11.37;78.74
73700;BME280;62005;50.082;8.988;2023-04-30T04:22:37;100935.72;;;10.93;78.51
73700;BME280;62005;50.082;8.988;2023-04-30T04:25:09;100964.00;;;11.10;78.74
73700;BME280;62005;50.082;8.988;2023-04-30T04:27:34;100960.22;;;11.11;78.88
73700;BME280;62005;50.082;8.988;2023-04-30T04:30:03;101018.47;;;11.39;78.74
73700;BME280;62005;50.082;8.988;2023-04-30T04:32:44;100972.31;;;11.15;79.39
73700;BME280;62005;50.082;8.988;2023-04-30T04:35:18;100985.63;;;11.23;78.70
73700;BME280;62005;50.082;8.988;2023-04-30T04:37:44;101014.69;;;11.40;78.60
73700;BME280;62005;50.082;8.988;2023-04-30T04:40:13;100975.66;;;11.17;78.57
73700;BME280;62005;50.082;8.988;2023-04-30T04:42:48;100974.38;;;11.19;78.50
73700;BME280;62005;50.082;8.988;2023-04-30T04:45:45;100980.41;;;11.21;78.68
73700;BME280;62005;50.082;8.988;2023-04-30T04:48:34;100986.44;;;11.30;78.13
73700;BME280;62005;50.082;8.988;2023-04-30T04:54:10;101001.34;;;11.52;77.68
73700;BME280;62005;50.082;8.988;2023-04-30T04:57:02;100976.38;;;11.50;78.40
73700;BME280;62005;50.082;8.988;2023-04-30T04:59:59;101001.72;;;11.75;78.15
73700;BME280;62005;50.082;8.988;2023-04-30T05:02:41;100955.09;;;11.60;77.99
73700;BME280;62005;50.082;8.988;2023-04-30T05:05:11;100941.78;;;11.65;77.27
73700;BME280;62005;50.082;8.988;2023-04-30T05:07:48;100984.91;;;12.04;76.91
73700;BME280;62005;50.082;8.988;2023-04-30T05:10:16;101012.66;;;12.37;76.39
73700;BME280;62005;50.082;8.988;2023-04-30T05:12:45;100974.00;;;12.17;75.99
73700;BME280;62005;50.082;8.988;2023-04-30T05:15:19;100964.34;;;12.28;75.55
73700;BME280;62005;50.082;8.988;2023-04-30T05:18:00;101003.88;;;12.66;75.24
73700;BME280;62005;50.082;8.988;2023-04-30T05:20:51;100965.34;;;12.58;75.15
73700;BME280;62005;50.082;8.988;2023-04-30T05:24:01;100984.28;;;12.89;73.99
73700;BME280;62005;50.082;8.988;2023-04-30T05:30:17;101022.63;;;13.60;72.16
73700;BME280;62005;50.082;8.988;2023-04-30T05:33:21;100961.97;;;13.48;71.20
73700;BME280;62005;50.082;8.988;2023-04-30T05:39:21;100953.44;;;13.92;69.96
73700;BME280;62005;50.082;8.988;2023-04-30T05:42:09;100969.56;;;14.34;68.02
73700;BME280;62005;50.082;8.988;2023-04-30T05:45:08;100980.44;;;14.64;68.20
73700;BME280;62005;50.082;8.988;2023-04-30T05:57:30;100971.88;;;15.64;63.66
73700;BME280;62005;50.082;8.988;2023-04-30T05:59:55;101002.59;;;16.00;61.85
73700;BME280;62005;50.082;8.988;2023-04-30T06:02:21;100973.38;;;16.12;62.12
73700;BME280;62005;50.082;8.988;2023-04-30T06:04:47;101040.50;;;16.69;60.74
73700;BME280;62005;50.082;8.988;2023-04-30T06:07:12;100997.97;;;16.73;59.11
73700;BME280;62005;50.082;8.988;2023-04-30T06:09:37;101024.59;;;17.16;60.01
73700;BME280;62005;50.082;8.988;2023-04-30T06:12:03;101022.09;;;17.31;59.46
73700;BME280;62005;50.082;8.988;2023-04-30T06:14:28;101015.84;;;17.47;57.68
73700;BME280;62005;50.082;8.988;2023-04-30T06:16:54;101019.91;;;17.66;58.09
73700;BME280;62005;50.082;8.988;2023-04-30T06:19:19;101027.09;;;17.93;57.38
73700;BME280;62005;50.082;8.988;2023-04-30T06:21:47;101025.72;;;18.12;56.80
73700;BME280;62005;50.082;8.988;2023-04-30T06:24:18;101013.28;;;18.27;54.48
73700;BME280;62005;50.082;8.988;2023-04-30T06:26:43;100993.25;;;18.43;53.20
73700;BME280;62005;50.082;8.988;2023-04-30T06:29:09;101007.22;;;18.78;52.39
73700;BME280;62005;50.082;8.988;2023-04-30T06:31:34;100994.94;;;18.80;53.36
73700;BME280;62005;50.082;8.988;2023-04-30T06:34:00;100983.16;;;18.80;52.80
73700;BME280;62005;50.082;8.988;2023-04-30T06:36:25;100993.16;;;19.01;51.32
73700;BME280;62005;50.082;8.988;2023-04-30T06:41:45;100992.69;;;19.09;51.06
73700;BME280;62005;50.082;8.988;2023-04-30T06:44:11;101015.91;;;19.33;49.32
73700;BME280;62005;50.082;8.988;2023-04-30T06:46:37;101009.66;;;19.42;48.98
73700;BME280;62005;50.082;8.988;2023-04-30T06:49:02;101020.94;;;19.46;48.46
73700;BME280;62005;50.082;8.988;2023-04-30T06:51:29;101014.91;;;19.49;48.54
73700;BME280;62005;50.082;8.988;2023-04-30T06:53:55;101020.44;;;19.54;48.51
73700;BME280;62005;50.082;8.988;2023-04-30T06:56:20;101014.13;;;19.59;49.09
73700;BME280;62005;50.082;8.988;2023-04-30T06:58:46;101019.91;;;19.57;46.51
73700;BME280;62005;50.082;8.988;2023-04-30T07:01:11;101008.38;;;19.55;47.38
73700;BME280;62005;50.082;8.988;2023-04-30T07:03:37;101020.44;;;19.54;45.08
73700;BME280;62005;50.082;8.988;2023-04-30T07:06:03;101012.16;;;19.44;45.51
73700;BME280;62005;50.082;8.988;2023-04-30T07:08:30;101025.28;;;19.42;45.55
73700;BME280;62005;50.082;8.988;2023-04-30T07:10:56;101014.28;;;19.32;45.88
73700;BME280;62005;50.082;8.988;2023-04-30T07:13:22;101018.59;;;19.28;45.64
73700;BME280;62005;50.082;8.988;2023-04-30T07:15:48;101016.47;;;19.30;44.93
73700;BME280;62005;50.082;8.988;2023-04-30T07:18:13;101015.38;;;19.36;47.14
73700;BME280;62005;50.082;8.988;2023-04-30T07:20:40;101010.38;;;19.28;43.37
73700;BME280;62005;50.082;8.988;2023-04-30T07:23:05;101013.66;;;19.25;45.48
73700;BME280;62005;50.082;8.988;2023-04-30T07:25:30;100993.59;;;19.19;45.48
73700;BME280;62005;50.082;8.988;2023-04-30T07:27:56;100977.69;;;19.16;45.37
73700;BME280;62005;50.082;8.988;2023-04-30T07:30:27;101015.09;;;19.32;43.83
73700;BME280;62005;50.082;8.988;2023-04-30T07:32:53;101002.75;;;19.30;45.52
73700;BME280;62005;50.082;8.988;2023-04-30T07:35:18;101008.25;;;19.35;45.47
73700;BME280;62005;50.082;8.988;2023-04-30T07:37:44;101008.81;;;19.32;43.91
73700;BME280;62005;50.082;8.988;2023-04-30T07:40:10;101003.84;;;19.34;43.16
73700;BME280;62005;50.082;8.988;2023-04-30T07:42:41;101003.81;;;19.29;43.69
73700;BME280;62005;50.082;8.988;2023-04-30T07:45:07;100956.19;;;18.98;43.15
73700;BME280;62005;50.082;8.988;2023-04-30T07:47:33;100984.28;;;19.20;44.81
73700;BME280;62005;50.082;8.988;2023-04-30T07:49:58;100997.78;;;19.27;44.48
73700;BME280;62005;50.082;8.988;2023-04-30T07:52:26;101001.00;;;19.24;42.82
73700;BME280;62005;50.082;8.988;2023-04-30T07:54:51;101010.44;;;19.33;43.66
73700;BME280;62005;50.082;8.988;2023-04-30T07:57:16;101001.84;;;19.24;44.68
73700;BME280;62005;50.082;8.988;2023-04-30T07:59:42;101005.25;;;19.36;44.66
73700;BME280;62005;50.082;8.988;2023-04-30T08:02:08;101008.56;;;19.38;44.23
73700;BME280;62005;50.082;8.988;2023-04-30T08:04:33;101012.16;;;19.44;44.95
73700;BME280;62005;50.082;8.988;2023-04-30T08:06:59;101015.47;;;19.51;44.05
73700;BME280;62005;50.082;8.988;2023-04-30T08:09:26;101011.66;;;19.57;42.87
73700;BME280;62005;50.082;8.988;2023-04-30T08:11:51;101003.97;;;19.54;43.55
73700;BME280;62005;50.082;8.988;2023-04-30T08:14:17;100991.41;;;19.58;41.97
73700;BME280;62005;50.082;8.988;2023-04-30T08:16:43;101010.09;;;19.66;43.66
73700;BME280;62005;50.082;8.988;2023-04-30T08:19:08;101001.88;;;19.71;43.74
73700;BME280;62005;50.082;8.988;2023-04-30T08:21:34;101003.28;;;19.79;44.00
73700;BME280;62005;50.082;8.988;2023-04-30T08:24:00;100985.97;;;19.73;43.94
73700;BME280;62005;50.082;8.988;2023-04-30T08:26:25;100999.78;;;19.88;44.22
73700;BME280;62005;50.082;8.988;2023-04-30T08:28:51;100987.66;;;19.84;42.16
73700;BME280;62005;50.082;8.988;2023-04-30T08:31:16;101004.44;;;19.93;42.62
73700;BME280;62005;50.082;8.988;2023-04-30T08:33:47;100980.00;;;19.86;43.58
73700;BME280;62005;50.082;8.988;2023-04-30T08:36:12;100998.41;;;19.96;42.88
73700;BME280;62005;50.082;8.988;2023-04-30T08:38:38;100977.81;;;19.83;42.97
73700;BME280;62005;50.082;8.988;2023-04-30T08:41:13;101012.44;;;20.04;42.82
73700;BME280;62005;50.082;8.988;2023-04-30T08:43:39;101000.38;;;20.10;46.18
73700;BME280;62005;50.082;8.988;2023-04-30T08:46:05;100993.81;;;20.16;44.73
73700;BME280;62005;50.082;8.988;2023-04-30T08:48:31;100989.16;;;20.17;45.20
73700;BME280;62005;50.082;8.988;2023-04-30T08:51:03;100988.91;;;20.23;45.06
73700;BME280;62005;50.082;8.988;2023-04-30T08:53:30;100991.38;;;20.25;43.58
73700;BME280;62005;50.082;8.988;2023-04-30T08:55:56;100989.50;;;20.30;44.96
73700;BME280;62005;50.082;8.988;2023-04-30T08:58:21;100990.06;;;20.37;45.97
73700;BME280;62005;50.082;8.988;2023-04-30T09:00:47;100995.28;;;20.44;44.46
73700;BME280;62005;50.082;8.988;2023-04-30T09:03:12;100981.28;;;20.45;44.73
73700;BME280;62005;50.082;8.988;2023-04-30T09:05:38;100993.91;;;20.56;42.64
73700;BME280;62005;50.082;8.988;2023-04-30T09:08:05;100989.53;;;20.50;41.60
73700;BME280;62005;50.082;8.988;2023-04-30T09:10:32;100984.59;;;20.47;40.63
73700;BME280;62005;50.082;8.988;2023-04-30T09:13:07;100988.97;;;20.43;38.38
73700;BME280;62005;50.082;8.988;2023-04-30T09:15:33;100989.50;;;20.40;42.69
73700;BME280;62005;50.082;8.988;2023-04-30T09:18:12;100966.69;;;20.30;40.44
73700;BME280;62005;50.082;8.988;2023-04-30T09:23:19;100982.88;;;20.21;37.06
73700;BME280;62005;50.082;8.988;2023-04-30T09:25:44;100982.28;;;20.14;38.09
73700;BME280;62005;50.082;8.988;2023-04-30T09:28:11;100979.03;;;20.17;39.68
73700;BME280;62005;50.082;8.988;2023-04-30T09:30:36;100961.41;;;20.13;41.25
73700;BME280;62005;50.082;8.988;2023-04-30T09:33:03;100978.47;;;20.20;41.03
73700;BME280;62005;50.082;8.988;2023-04-30T09:35:30;100981.25;;;20.25;38.68
73700;BME280;62005;50.082;8.988;2023-04-30T09:38:06;100961.47;;;20.23;40.65
73700;BME280;62005;50.082;8.988;2023-04-30T09:40:41;100986.19;;;20.28;38.78
73700;BME280;62005;50.082;8.988;2023-04-30T09:43:07;100969.72;;;20.28;38.79
73700;BME280;62005;50.082;8.988;2023-04-30T09:51:53;100972.47;;;20.43;40.78
73700;BME280;62005;50.082;8.988;2023-04-30T09:54:19;100959.03;;;20.42;40.38
73700;BME280;62005;50.082;8.988;2023-04-30T09:56:45;100953.81;;;20.50;42.07
73700;BME280;62005;50.082;8.988;2023-04-30T09:59:12;100957.13;;;20.57;41.67
73700;BME280;62005;50.082;8.988;2023-04-30T10:01:38;100951.06;;;20.60;41.07
73700;BME280;62005;50.082;8.988;2023-04-30T10:04:04;100915.34;;;20.45;40.56
73700;BME280;62005;50.082;8.988;2023-04-30T10:06:30;100935.69;;;20.59;40.61
73700;BME280;62005;50.082;8.988;2023-04-30T10:09:07;100897.25;;;20.39;39.76
73700;BME280;62005;50.082;8.988;2023-04-30T10:11:35;100917.00;;;20.56;41.48
73700;BME280;62005;50.082;8.988;2023-04-30T10:20:44;100904.38;;;20.65;39.97
73700;BME280;62005;50.082;8.988;2023-04-30T10:23:11;100917.53;;;20.84;42.12
73700;BME280;62005;50.082;8.988;2023-04-30T10:25:40;100918.63;;;20.83;40.15
73700;BME280;62005;50.082;8.988;2023-04-30T10:28:09;100935.13;;;20.98;39.84
73700;BME280;62005;50.082;8.988;2023-04-30T10:30:34;100919.19;;;20.85;37.60
73700;BME280;62005;50.082;8.988;2023-04-30T10:33:19;100927.97;;;20.87;37.12
73700;BME280;62005;50.082;8.988;2023-04-30T10:35:53;100907.91;;;20.81;38.34
73700;BME280;62005;50.082;8.988;2023-04-30T10:38:23;100909.28;;;20.89;39.53
73700;BME280;62005;50.082;8.988;2023-04-30T10:40:50;100896.63;;;20.88;39.93
73700;BME280;62005;50.082;8.988;2023-04-30T10:43:19;100880.13;;;20.88;41.62
73700;BME280;62005;50.082;8.988;2023-04-30T10:45:47;100898.03;;;21.05;40.86
73700;BME280;62005;50.082;8.988;2023-04-30T10:48:14;100894.44;;;21.10;39.62
73700;BME280;62005;50.082;8.988;2023-04-30T10:50:42;100879.03;;;21.14;40.61
73700;BME280;62005;50.082;8.988;2023-04-30T10:53:16;100880.66;;;21.15;38.48
73700;BME280;62005;50.082;8.988;2023-04-30T10:55:47;100878.47;;;21.17;40.92
73700;BME280;62005;50.082;8.988;2023-04-30T10:58:27;100875.72;;;21.17;38.71
73700;BME280;62005;50.082;8.988;2023-04-30T11:01:05;100884.53;;;21.14;38.19
73700;BME280;62005;50.082;8.988;2023-04-30T11:03:32;100870.78;;;21.09;39.69
73700;BME280;62005;50.082;8.988;2023-04-30T11:05:59;100866.38;;;21.13;38.12
73700;BME280;62005;50.082;8.988;2023-04-30T11:08:38;100870.50;;;21.15;36.46
73700;BME280;62005;50.082;8.988;2023-04-30T11:11:04;100858.97;;;21.08;40.23
73700;BME280;62005;50.082;8.988;2023-04-30T11:13:59;100867.47;;;21.17;38.58
73700;BME280;62005;50.082;8.988;2023-04-30T11:16:34;100848.22;;;21.12;39.80
73700;BME280;62005;50.082;8.988;2023-04-30T11:19:11;100856.44;;;21.27;39.40
73700;BME280;62005;50.082;8.988;2023-04-30T11:21:40;100850.91;;;21.32;41.67
73700;BME280;62005;50.082;8.988;2023-04-30T11:24:06;100856.94;;;21.34;39.01
73700;BME280;62005;50.082;8.988;2023-04-30T11:27:04;100864.06;;;21.40;39.53
73700;BME280;62005;50.082;8.988;2023-04-30T11:29:30;100865.78;;;21.26;37.21
73700;BME280;62005;50.082;8.988;2023-04-30T11:31:59;100863.34;;;21.14;38.93
73700;BME280;62005;50.082;8.988;2023-04-30T11:34:25;100854.31;;;21.09;37.92
73700;BME280;62005;50.082;8.988;2023-04-30T11:36:53;100837.81;;;21.09;40.83
73700;BME280;62005;50.082;8.988;2023-04-30T11:39:19;100842.19;;;21.05;38.53
73700;BME280;62005;50.082;8.988;2023-04-30T11:41:45;100836.16;;;20.98;36.62
73700;BME280;62005;50.082;8.988;2023-04-30T11:44:26;100830.38;;;20.94;38.06
73700;BME280;62005;50.082;8.988;2023-04-30T11:46:52;100829.59;;;20.99;40.16
73700;BME280;62005;50.082;8.988;2023-04-30T11:49:19;100838.34;;;21.06;40.24
73700;BME280;62005;50.082;8.988;2023-04-30T11:51:47;100830.94;;;21.01;38.16
73700;BME280;62005;50.082;8.988;2023-04-30T11:54:13;100826.84;;;20.89;39.09
73700;BME280;62005;50.082;8.988;2023-04-30T11:56:39;100835.38;;;20.87;39.13
73700;BME280;62005;50.082;8.988;2023-04-30T11:59:11;100831.78;;;20.92;40.71
73700;BME280;62005;50.082;8.988;2023-04-30T12:01:36;100813.88;;;20.94;42.19
73700;BME280;62005;50.082;8.988;2023-04-30T12:04:02;100819.66;;;21.03;40.93
73700;BME280;62005;50.082;8.988;2023-04-30T12:06:28;100831.22;;;21.05;40.30
73700;BME280;62005;50.082;8.988;2023-04-30T12:08:56;100820.22;;;21.05;40.39
73700;BME280;62005;50.082;8.988;2023-04-30T12:11:29;100817.75;;;21.03;39.89
73700;BME280;62005;50.082;8.988;2023-04-30T12:14:02;100815.84;;;20.99;39.00
73700;BME280;62005;50.082;8.988;2023-04-30T12:19:06;100811.94;;;21.10;41.93
73700;BME280;62005;50.082;8.988;2023-04-30T12:21:32;100820.75;;;21.12;41.67
73700;BME280;62005;50.082;8.988;2023-04-30T12:23:58;100815.81;;;21.09;40.86
73700;BME280;62005;50.082;8.988;2023-04-30T12:26:23;100800.41;;;21.03;39.24
73700;BME280;62005;50.082;8.988;2023-04-30T12:28:49;100810.34;;;20.99;38.48
73700;BME280;62005;50.082;8.988;2023-04-30T12:31:18;100806.75;;;20.93;39.35
73700;BME280;62005;50.082;8.988;2023-04-30T12:33:52;100787.28;;;20.74;38.30
73700;BME280;62005;50.082;8.988;2023-04-30T12:36:18;100801.84;;;20.85;39.90
73700;BME280;62005;50.082;8.988;2023-04-30T12:38:44;100818.03;;;20.87;39.63
73700;BME280;62005;50.082;8.988;2023-04-30T12:41:11;100810.34;;;20.89;39.12
73700;BME280;62005;50.082;8.988;2023-04-30T12:43:41;100797.19;;;20.81;40.21
73700;BME280;62005;50.082;8.988;2023-04-30T12:46:06;100793.34;;;20.77;39.45
73700;BME280;62005;50.082;8.988;2023-04-30T12:48:42;100799.94;;;20.81;39.54
73700;BME280;62005;50.082;8.988;2023-04-30T12:51:08;100805.94;;;20.83;41.00
73700;BME280;62005;50.082;8.988;2023-04-30T12:53:44;100794.44;;;20.76;40.35
73700;BME280;62005;50.082;8.988;2023-04-30T12:56:14;100793.88;;;20.79;39.43
73700;BME280;62005;50.082;8.988;2023-04-30T12:58:41;100792.78;;;20.80;39.84
73700;BME280;62005;50.082;8.988;2023-04-30T13:01:14;100788.66;;;20.82;39.08
73700;BME280;62005;50.082;8.988;2023-04-30T13:03:40;100783.44;;;20.86;40.60
73700;BME280;62005;50.082;8.988;2023-04-30T13:06:05;100761.19;;;20.77;40.27
73700;BME280;62005;50.082;8.988;2023-04-30T13:08:31;100780.09;;;20.94;42.19
73700;BME280;62005;50.082;8.988;2023-04-30T13:10:57;100776.50;;;20.93;41.15
73700;BME280;62005;50.082;8.988;2023-04-30T13:13:22;100778.44;;;20.93;41.32
73700;BME280;62005;50.082;8.988;2023-04-30T13:15:48;100765.28;;;20.85;39.90
73700;BME280;62005;50.082;8.988;2023-04-30T13:18:13;100774.91;;;20.87;40.16
73700;BME280;62005;50.082;8.988;2023-04-30T13:20:41;100753.22;;;20.81;41.02
73700;BME280;62005;50.082;8.988;2023-04-30T13:23:08;100755.41;;;20.79;41.54
73700;BME280;62005;50.082;8.988;2023-04-30T13:25:34;100763.69;;;20.73;39.65
73700;BME280;62005;50.082;8.988;2023-04-30T13:28:00;100755.44;;;20.68;39.19
73700;BME280;62005;50.082;8.988;2023-04-30T13:30:25;100765.31;;;20.74;40.66
73700;BME280;62005;50.082;8.988;2023-04-30T13:32:50;100745.59;;;20.62;40.77
73700;BME280;62005;50.082;8.988;2023-04-30T13:35:17;100746.13;;;20.59;40.10
73700;BME280;62005;50.082;8.988;2023-04-30T13:37:42;100747.50;;;20.57;40.91
73700;BME280;62005;50.082;8.988;2023-04-30T13:40:08;100747.22;;;20.63;40.89
73700;BME280;62005;50.082;8.988;2023-04-30T13:42:37;100753.81;;;20.67;41.82
73700;BME280;62005;50.082;8.988;2023-04-30T13:45:05;100751.06;;;20.67;39.96
73700;BME280;62005;50.082;8.988;2023-04-30T13:47:30;100751.59;;;20.69;40.21
73700;BME280;62005;50.082;8.988;2023-04-30T13:49:56;100746.66;;;20.66;41.03
73700;BME280;62005;50.082;8.988;2023-04-30T13:52:24;100747.19;;;20.73;41.29
73700;BME280;62005;50.082;8.988;2023-04-30T13:54:51;100737.84;;;20.69;40.72
73700;BME280;62005;50.082;8.988;2023-04-30T13:57:17;100740.03;;;20.72;41.42
73700;BME280;62005;50.082;8.988;2023-04-30T13:59:42;100733.47;;;20.68;41.42
73700;BME280;62005;50.082;8.988;2023-04-30T14:02:08;100724.94;;;20.70;41.54
73700;BME280;62005;50.082;8.988;2023-04-30T14:04:34;100730.72;;;20.63;40.43
73700;BME280;62005;50.082;8.988;2023-04-30T14:07:00;100739.53;;;20.65;39.54
73700;BME280;62005;50.082;8.988;2023-04-30T14:09:25;100736.78;;;20.60;40.10
73700;BME280;62005;50.082;8.988;2023-04-30T14:11:51;100730.75;;;20.53;39.62
73700;BME280;62005;50.082;8.988;2023-04-30T14:14:16;100731.88;;;20.52;40.26
73700;BME280;62005;50.082;8.988;2023-04-30T14:16:42;100736.25;;;20.53;39.70
73700;BME280;62005;50.082;8.988;2023-04-30T14:19:08;100732.97;;;20.51;40.64
73700;BME280;62005;50.082;8.988;2023-04-30T14:21:33;100730.22;;;20.46;40.50
73700;BME280;62005;50.082;8.988;2023-04-30T14:23:59;100730.78;;;20.43;40.65
73700;BME280;62005;50.082;8.988;2023-04-30T14:26:24;100731.31;;;20.50;39.44
73700;BME280;62005;50.082;8.988;2023-04-30T14:28:49;100734.91;;;20.46;39.42
73700;BME280;62005;50.082;8.988;2023-04-30T14:31:15;100730.22;;;20.46;40.70
73700;BME280;62005;50.082;8.988;2023-04-30T14:33:40;100705.25;;;20.38;40.83